createdAt,value
2023-03-10T00:01:22.012Z,33.13
2023-03-10T00:06:27.693Z,25.42
2023-03-10T00:11:30.537Z,31.02
2023-03-10T00:16:34.803Z,28.15
2023-03-10T00:21:37.606Z,31.40
2023-03-10T00:26:40.465Z,31.02
2023-03-10T00:31:45.103Z,30.98
2023-03-10T00:36:47.884Z,34.67
2023-03-10T00:41:50.918Z,26.80
2023-03-10T00:46:55.396Z,30.58
2023-03-10T00:51:58.208Z,28.13
2023-03-10T00:57:00.980Z,27.65
2023-03-10T01:02:07.569Z,29.52
2023-03-10T01:07:10.608Z,30.58
2023-03-10T01:12:13.659Z,26.08
2023-03-10T01:17:17.848Z,32.63
2023-03-10T01:22:20.762Z,36.75
2023-03-10T01:27:23.632Z,33.22
2023-03-10T01:32:27.877Z,31.08
2023-03-10T01:37:30.682Z,40.17
2023-03-10T01:42:33.528Z,42.00
2023-03-10T01:47:37.777Z,40.92
2023-03-10T01:52:44.807Z,37.97
2023-03-10T01:57:52.560Z,38.25
2023-03-10T02:03:03.553Z,37.42
2023-03-10T02:08:07.755Z,32.85
2023-03-10T02:13:10.535Z,39.42
2023-03-10T02:18:16.635Z,44.45
2023-03-10T02:23:26.125Z,37.80
2023-03-10T02:28:30.691Z,34.13
2023-03-10T02:33:34.458Z,44.30
2023-03-10T02:38:37.335Z,46.63
2023-03-10T02:43:42.361Z,35.80
2023-03-10T02:48:55.380Z,59.03
2023-03-10T02:54:05.250Z,21.83
2023-03-10T02:59:10.957Z,16.05
2023-03-10T03:04:18.647Z,16.25
2023-03-10T03:09:23.070Z,10.95
2023-03-10T03:14:27.466Z,14.40
2023-03-10T03:19:30.517Z,8.93
2023-03-10T03:24:34.342Z,9.30
2023-03-10T03:29:39.816Z,11.07
2023-03-10T03:34:42.788Z,10.13
2023-03-10T03:39:45.826Z,12.63
2023-03-10T03:44:50.153Z,9.23
2023-03-10T03:49:53.435Z,14.70
2023-03-10T03:54:56.386Z,12.73
2023-03-10T04:00:00.731Z,16.60
2023-03-10T04:05:05.791Z,14.98
2023-03-10T04:10:10.862Z,17.33
2023-03-10T04:15:15.412Z,14.80
2023-03-10T04:20:18.529Z,17.80
2023-03-10T04:25:25.119Z,15.35
2023-03-10T04:30:30.034Z,12.70
2023-03-10T04:35:36.141Z,11.88
2023-03-10T04:40:39.083Z,13.65
2023-03-10T04:45:43.443Z,13.70
2023-03-10T04:50:46.520Z,14.32
2023-03-10T04:55:51.439Z,12.57
2023-03-10T05:01:03.304Z,15.50
2023-03-10T05:06:15.493Z,15.20
2023-03-10T05:11:20.770Z,15.15
2023-03-10T05:16:25.440Z,15.25
2023-03-10T05:21:29.962Z,15.63
2023-03-10T05:26:34.964Z,16.38
2023-03-10T05:31:40.928Z,14.63
2023-03-10T05:36:49.030Z,18.73
2023-03-10T05:41:53.045Z,15.73
2023-03-10T05:46:58.541Z,15.05
2023-03-10T05:52:01.527Z,16.38
2023-03-10T05:57:04.682Z,17.75
2023-03-10T06:02:10.147Z,16.58
2023-03-10T06:07:12.985Z,14.50
2023-03-10T06:12:15.791Z,14.30
2023-03-10T06:17:20.000Z,18.38
2023-03-10T06:22:22.790Z,14.77
2023-03-10T06:27:25.721Z,17.33
2023-03-10T06:32:29.887Z,15.15
2023-03-10T06:37:32.719Z,16.63
2023-03-10T06:42:35.526Z,17.35
2023-03-10T06:47:39.974Z,16.40
2023-03-10T06:52:43.198Z,17.85
2023-03-10T06:57:46.015Z,20.27
2023-03-10T07:02:50.110Z,16.70
2023-03-10T07:07:52.844Z,15.45
2023-03-10T07:12:58.843Z,17.42
2023-03-10T07:18:03.023Z,14.18
2023-03-10T07:23:05.743Z,15.98
2023-03-10T07:28:08.925Z,20.30
2023-03-10T07:33:13.070Z,29.25
2023-03-10T07:38:15.808Z,26.38
2023-03-10T07:43:18.576Z,17.95
2023-03-10T07:48:22.776Z,12.70
2023-03-10T07:53:25.721Z,8.27
2023-03-10T07:58:28.498Z,8.77
2023-03-10T08:03:34.106Z,11.15
2023-03-10T08:08:37.111Z,11.68
2023-03-10T08:13:40.419Z,12.75
2023-03-10T08:18:44.850Z,14.32
2023-03-10T08:23:47.719Z,11.45
2023-03-10T08:28:50.637Z,11.77
2023-03-10T08:33:57.742Z,15.65
2023-03-10T08:39:02.141Z,14.75
2023-03-10T08:44:05.181Z,19.45
2023-03-10T08:49:09.792Z,14.57
2023-03-10T08:54:15.329Z,16.85
2023-03-10T08:59:19.270Z,13.48
2023-03-10T09:04:23.557Z,11.75
2023-03-10T09:09:26.345Z,14.88
2023-03-10T09:14:29.094Z,17.10
2023-03-10T09:19:33.327Z,14.20
2023-03-10T09:24:36.149Z,11.57
2023-03-10T09:29:43.573Z,15.15
2023-03-10T09:34:47.892Z,13.15
2023-03-10T09:39:50.662Z,13.23
2023-03-10T09:45:04.144Z,12.35
2023-03-10T09:50:24.736Z,14.43
2023-03-10T09:55:30.295Z,31.08
2023-03-10T10:00:38.368Z,16.65
2023-03-10T10:05:42.980Z,19.48
2023-03-10T10:10:49.239Z,17.67
2023-03-10T10:16:18.184Z,20.38
2023-03-10T10:21:28.188Z,17.98
2023-03-10T10:26:33.504Z,16.67
2023-03-10T10:31:36.386Z,14.48
2023-03-10T10:36:51.991Z,10.95
2023-03-10T10:41:55.408Z,9.45
2023-03-10T10:46:58.818Z,9.45
2023-03-10T10:52:05.593Z,8.43
2023-03-10T10:57:18.646Z,9.95
2023-03-10T11:02:25.422Z,12.23
2023-03-10T11:07:29.625Z,6.40
2023-03-10T11:12:36.932Z,5.82
2023-03-10T11:17:44.772Z,6.82
2023-03-10T11:22:53.403Z,9.85
2023-03-10T11:28:05.500Z,12.60
2023-03-10T11:33:21.133Z,7.97
2023-03-10T11:38:38.193Z,6.05
2023-03-10T11:43:53.897Z,6.63
2023-03-10T11:49:05.230Z,6.18
2023-03-10T11:54:16.460Z,8.52
2023-03-10T11:59:22.953Z,5.20
2023-03-10T12:04:31.836Z,5.05
2023-03-10T12:09:42.222Z,6.13
2023-03-10T12:14:47.311Z,6.05
2023-03-10T12:20:21.268Z,5.05
2023-03-10T12:25:45.155Z,6.03
2023-03-10T12:30:50.973Z,7.80
2023-03-10T12:35:56.226Z,7.07
2023-03-10T12:41:01.880Z,7.10
2023-03-10T12:46:05.699Z,5.88
2023-03-10T12:51:13.932Z,6.78
2023-03-10T12:56:23.856Z,6.45
2023-03-10T13:01:33.227Z,6.55
2023-03-10T13:06:39.699Z,5.03
2023-03-10T13:11:46.030Z,6.38
2023-03-10T13:16:54.546Z,7.60
2023-03-10T13:21:57.737Z,6.55
2023-03-10T13:27:07.158Z,7.28
2023-03-10T13:32:19.636Z,7.35
2023-03-10T13:37:22.588Z,5.97
2023-03-10T13:42:42.763Z,6.68
2023-03-10T13:47:47.293Z,8.98
2023-03-10T13:52:54.089Z,7.35
2023-03-10T13:57:59.471Z,6.15
2023-03-10T14:03:02.664Z,5.63
2023-03-10T14:08:06.562Z,6.00
2023-03-10T14:13:40.173Z,6.00
2023-03-10T14:18:44.042Z,6.90
2023-03-10T14:23:46.881Z,8.88
2023-03-10T14:28:51.032Z,6.35
2023-03-10T14:33:54.902Z,5.90
2023-03-10T14:38:57.672Z,9.43
2023-03-10T14:44:02.600Z,7.65
2023-03-10T14:49:06.784Z,8.55
2023-03-10T14:54:17.795Z,8.45
2023-03-10T14:59:21.917Z,13.38
2023-03-10T15:04:24.833Z,7.72
2023-03-10T15:09:27.616Z,10.55
2023-03-10T15:14:31.737Z,12.02
2023-03-10T15:19:34.507Z,14.68
2023-03-10T15:24:37.247Z,12.07
2023-03-10T15:29:41.427Z,14.60
2023-03-10T15:34:44.201Z,14.05
2023-03-10T15:39:46.995Z,13.07
2023-03-10T15:44:51.749Z,17.05
2023-03-10T15:49:54.759Z,16.55
2023-03-10T15:54:57.937Z,16.85
2023-03-10T16:00:02.128Z,13.35
2023-03-10T16:05:08.311Z,12.05
2023-03-10T16:10:13.084Z,12.73
2023-03-10T16:15:18.453Z,13.57
2023-03-10T16:20:21.550Z,10.05
2023-03-10T16:25:24.323Z,15.50
2023-03-10T16:30:28.561Z,14.25
2023-03-10T16:35:31.521Z,14.35
2023-03-10T16:40:34.296Z,10.80
2023-03-10T16:45:38.509Z,12.50
2023-03-10T16:50:41.330Z,12.00
2023-03-10T16:55:44.122Z,10.55
2023-03-10T17:00:48.282Z,15.90
2023-03-10T17:05:53.697Z,11.32
2023-03-10T17:10:56.493Z,9.80
2023-03-10T17:16:01.172Z,13.00
2023-03-10T17:21:12.320Z,10.38
2023-03-10T17:26:16.024Z,9.38
2023-03-10T17:31:23.593Z,17.35
2023-03-10T17:36:27.118Z,9.18
2023-03-10T17:41:30.921Z,9.88
2023-03-10T17:46:35.117Z,9.25
2023-03-10T17:51:39.199Z,10.05
2023-03-10T17:56:43.275Z,10.40
2023-03-10T18:01:49.187Z,7.70
2023-03-10T18:06:52.024Z,10.65
2023-03-10T18:11:57.135Z,8.27
2023-03-10T18:17:03.080Z,10.90
2023-03-10T18:22:06.616Z,9.20
2023-03-10T18:27:09.419Z,10.68
2023-03-10T18:32:13.835Z,10.43
2023-03-10T18:37:16.635Z,7.35
2023-03-10T18:42:21.731Z,9.05
2023-03-10T18:47:25.888Z,10.55
2023-03-10T18:52:28.675Z,11.07
2023-03-10T18:57:32.517Z,11.65
2023-03-10T19:02:36.710Z,17.02
2023-03-10T19:07:39.740Z,17.60
2023-03-10T19:12:43.134Z,24.63
2023-03-10T19:17:47.321Z,24.02
2023-03-10T19:22:51.557Z,28.25
2023-03-10T19:27:54.496Z,27.83
2023-03-10T19:32:58.691Z,28.77
2023-03-10T19:38:01.469Z,29.73
2023-03-10T19:43:04.482Z,22.23
2023-03-10T19:48:08.877Z,23.05
2023-03-10T19:53:11.721Z,24.52
2023-03-10T19:58:14.491Z,25.45
2023-03-10T20:03:19.328Z,24.40
2023-03-10T20:08:22.982Z,30.75
2023-03-10T20:13:25.752Z,30.48
2023-03-10T20:18:29.976Z,24.15
2023-03-10T20:23:33.444Z,34.20
2023-03-10T20:28:39.574Z,30.55
2023-03-10T20:33:43.849Z,31.65
2023-03-10T20:38:47.610Z,36.60
2023-03-10T20:43:51.204Z,40.05
2023-03-10T20:48:55.506Z,33.22
2023-03-10T20:53:58.517Z,29.77
2023-03-10T20:59:01.819Z,41.30
2023-03-10T21:04:06.534Z,40.63
2023-03-10T21:09:09.387Z,34.63
2023-03-10T21:14:12.159Z,32.95
2023-03-10T21:19:16.728Z,33.28
2023-03-10T21:24:19.546Z,36.58
2023-03-10T21:29:22.372Z,32.60
2023-03-10T21:34:26.587Z,35.35
2023-03-10T21:39:29.447Z,26.90
2023-03-10T21:44:32.335Z,23.85
2023-03-10T21:49:37.294Z,30.80
2023-03-10T21:54:40.690Z,29.73
2023-03-10T21:59:43.559Z,27.55
2023-03-10T22:04:47.814Z,21.65
2023-03-10T22:09:50.752Z,25.80
2023-03-10T22:14:57.438Z,27.27
2023-03-10T22:20:01.941Z,17.38
2023-03-10T22:25:05.078Z,20.95
2023-03-10T22:30:09.143Z,16.77
2023-03-10T22:35:13.881Z,20.48
2023-03-10T22:40:18.797Z,21.23
2023-03-10T22:45:24.291Z,19.17
2023-03-10T22:50:32.543Z,20.70
2023-03-10T22:55:38.206Z,14.05
2023-03-10T23:00:42.533Z,12.90
2023-03-10T23:05:47.001Z,14.10
2023-03-10T23:10:50.227Z,10.70
2023-03-10T23:15:53.410Z,7.45
2023-03-10T23:20:57.911Z,7.88
2023-03-10T23:26:01.096Z,8.18
2023-03-10T23:31:04.499Z,5.13
2023-03-10T23:36:11.663Z,8.23
2023-03-10T23:41:14.851Z,5.35
2023-03-10T23:46:17.778Z,6.20
2023-03-10T23:51:22.174Z,8.85
2023-03-10T23:56:24.979Z,8.27
